This is the latest recevied weather packets stored in our database for station/object F4EYU-10. If no packets are shown the sender has not sent any weather packets the latest 10 day(s).
| Time | Temp. | Humidity | Pressure | Rain* | Wind** | Luminosity | Snow |
|---|---|---|---|---|---|---|---|
| 1788125030 | 58° F | 67% | 633.1 mmHg | - | - | - | - |
| 1788121082 | 56° F | 75% | 632.9 mmHg | - | - | - | - |
| 1788117133 | 55° F | 74% | 632.7 mmHg | - | - | - | - |
| 1788113185 | 57° F | 69% | 632.2 mmHg | - | - | - | - |
| 1788109237 | 63° F | 56% | 632.1 mmHg | - | - | - | - |
| 1788105289 | 73° F | 43% | 632 mmHg | - | - | - | - |
| 1788101340 | 73° F | 44% | 632 mmHg | - | - | - | - |
| 1788097392 | 76° F | 40% | 632.2 mmHg | - | - | - | - |
| 1788093444 | 83° F | 33% | 632.5 mmHg | - | - | - | - |
| 1788089495 | 84° F | 35% | 632.5 mmHg | - | - | - | - |
| 1788085547 | 82° F | 34% | 632.6 mmHg | - | - | - | - |
| 1788081599 | 81° F | 34% | 632.8 mmHg | - | - | - | - |
| 1788077650 | 78° F | 36% | 632.7 mmHg | - | - | - | - |
| 1788073702 | 75° F | 40% | 632.5 mmHg | - | - | - | - |
| 1788069754 | 45° F | 85% | 632.5 mmHg | - | - | - | - |
| 1788038168 | 46° F | 87% | 633.2 mmHg | - | - | - | - |
| 1788034219 | 48° F | 87% | 633.1 mmHg | - | - | - | - |
| 1788030271 | 50° F | 83% | 632.9 mmHg | - | - | - | - |
| 1788026323 | 51° F | 81% | 632.3 mmHg | - | - | - | - |
| 1788022374 | 57° F | 69% | 632.1 mmHg | - | - | - | - |
| 1788018426 | 66° F | 50% | 632.2 mmHg | - | - | - | - |
| 1788014478 | 75° F | 42% | 632.2 mmHg | - | - | - | - |
| 1788010530 | 77° F | 41% | 632.3 mmHg | - | - | - | - |
| 1788006581 | 75° F | 44% | 632.3 mmHg | - | - | - | - |
| 1788002633 | 78° F | 40% | 632.3 mmHg | - | - | - | - |
* Rain since midnight (hover to see other rain measurements)
** Current wind speed in m/s (hover to see current wind gust speed)